Rock City Falls, NY (12863)

4:10 AM EST on December 19, 2014 (GMT -0500)
Goode Trees - Ballston Spa | Change Station
CLOSE
Current Station
Personal Weather Station
Location: Ballston Spa, NY
Elevation: 443 ft
Nearby Weather Stations

Elev 443 ft 43.02 °N, 73.91 °W | Updated 2 seconds ago

Overcast
Overcast
30.6 °F
Feels Like 26 °F
N
4.0
Wind Variable Wind from WNW
Gusts 6.0 mph

Today
High -- | Low -- °F
--% Chance of Precip.
Yesterday
High -- | Low -- °F
Precip. -- in
7:22 AM 4:22 PM
Waning Crescent, 9% visible
Pressure 29.97 in
Visibility 10.0 miles
Clouds Few 2000 ft
Overcast 4500 ft
Windchill 26 °F
Dew Point 24 °F
Humidity 77%
Rainfall 0.00 in
Snow Depth Not available.
UV 0.0 out of 12
Pollen .10 out of 12
Air Quality Not available.
Flu Activity Not available.
METAR KALB 190851Z 31010KT 10SM FEW020 OVC045 00/M06 A2996 RMK AO2 SLP149 T00001061 53003

More Conditions Fewer Conditions

Pressure 29.97 in
Visibility 10.0 miles
Clouds Few 2000 ft
Overcast 4500 ft
Windchill 26 °F
Dew Point 24 °F
Humidity 77%
Rainfall 0.00 in
Snow Depth Not available.
UV 0.0 out of 12
Pollen .10 out of 12
Air Quality Not available.
Flu Activity Not available.
METAR KALB 190851Z 31010KT 10SM FEW020 OVC045 00/M06 A2996 RMK AO2 SLP149 T00001061 53003

More Conditions Fewer Conditions

10-Day Weather Forecast

Almanac

Astronomy

Dec. 19, 2014 Rise Set
Actual Time
Civil Twilight
Nautical Twilight
Astronomical Twilight
Moon
Length of Visible Light
Length of Day
Tomorrow will be .
, % of the Moon is Illuminated

Today's Extremes

State Highs State Lows

Community

WunderPhotos

Upload Photos

1,778,966 photos uploaded!

WunderBlogs® & News

Nearby

Air Quality

  Air Quality AQ Index Pollutant
Not available.

Snow Depth

Station Depth Elevation

Earthquake Activity

City Distance Mag. Time & Date
Minimum magnitude displayed is 2.5.

Coastal Water Temperatures

Place Temperature

Nearby Weather Stations